Time;durP1;ratioP1;P1;durP2;ratioP2;P2;SDS_P1;SDS_P2;PMS_P1;PMS_P2;Temp;Humidity;BMP_temperature;BMP_pressure;BME280_temperature;BME280_humidity;BME280_pressure;Samples;Min_cycle;Max_cycle;Signal;HPM_P1;HPM_P2
2021/06/09 00:00:32;;;;;;;3.75;1.95;;;;;;;13.81;99.46;99480.63;1778137;80;21200;-77
2021/06/09 00:03:38;;;;;;;3.50;2.60;;;;;;;13.75;98.97;99482.87;1779222;80;21188;-77
2021/06/09 00:06:44;;;;;;;2.90;1.82;;;;;;;13.72;99.23;99475.06;1777792;80;21307;-77
2021/06/09 00:09:50;;;;;;;3.50;1.82;;;;;;;13.73;99.51;99473.16;1779360;80;21161;-77
2021/06/09 00:12:55;;;;;;;4.65;2.50;;;;;;;13.72;99.53;99468.72;1779391;80;21226;-78
2021/06/09 00:16:02;;;;;;;3.37;2.75;;;;;;;13.69;99.43;99460.90;1778264;80;21389;-78
2021/06/09 00:19:08;;;;;;;5.55;1.80;;;;;;;13.69;99.59;99464.52;1773337;80;21291;-77
2021/06/09 00:22:14;;;;;;;2.42;1.42;;;;;;;13.66;99.48;99458.61;1770553;81;21846;-77
2021/06/09 00:25:20;;;;;;;2.60;1.50;;;;;;;13.57;98.90;99452.50;1769693;81;21259;-77
2021/06/09 00:28:25;;;;;;;9.55;2.77;;;;;;;13.51;98.78;99455.59;1771125;81;21624;-76
2021/06/09 00:31:30;;;;;;;7.37;2.20;;;;;;;13.46;98.90;99447.16;1769854;81;21276;-78
2021/06/09 00:34:35;;;;;;;8.70;2.10;;;;;;;13.43;98.71;99455.82;1769733;81;21311;-77
2021/06/09 00:37:42;;;;;;;6.80;1.82;;;;;;;13.40;98.65;99458.98;1769571;81;21295;-77
2021/06/09 00:40:48;;;;;;;2.58;1.85;;;;;;;13.36;98.74;99456.38;1769777;81;21815;-77
2021/06/09 00:43:54;;;;;;;2.20;2.00;;;;;;;13.30;98.78;99450.35;1769702;80;21870;-78
2021/06/09 00:46:59;;;;;;;3.98;2.80;;;;;;;13.27;98.94;99448.05;1769497;81;21331;-77
2021/06/09 00:50:04;;;;;;;7.20;4.08;;;;;;;13.25;99.31;99450.16;1771191;81;21310;-77
2021/06/09 00:53:29;;;;;;;3.27;2.60;;;;;;;13.26;99.48;99443.59;1771154;81;21299;-77
2021/06/09 00:56:34;;;;;;;3.70;2.60;;;;;;;13.27;99.79;99438.44;1771258;81;21299;-77
2021/06/09 00:59:43;;;;;;;4.12;3.22;;;;;;;13.32;100.00;99444.13;1771238;81;21612;-77
2021/06/09 01:02:49;;;;;;;6.78;4.28;;;;;;;13.38;100.00;99443.27;1770273;81;21189;-76
2021/06/09 01:05:54;;;;;;;22.22;3.83;;;;;;;13.40;100.00;99440.29;1769695;81;21334;-77
2021/06/09 01:09:01;;;;;;;5.75;2.50;;;;;;;13.37;99.97;99445.70;1769741;81;21177;-77
2021/06/09 01:12:07;;;;;;;58.70;3.02;;;;;;;13.33;99.85;99446.34;1770641;81;21224;-78
2021/06/09 01:15:15;;;;;;;40.03;4.20;;;;;;;13.24;99.15;99445.73;1771037;81;21307;-77
2021/06/09 01:18:20;;;;;;;28.12;4.53;;;;;;;13.15;98.77;99438.21;1771647;81;21319;-77
2021/06/09 01:21:34;;;;;;;29.32;3.58;;;;;;;13.14;99.30;99442.55;1776536;81;21350;-77
2021/06/09 01:24:40;;;;;;;22.30;4.05;;;;;;;13.17;99.97;99440.73;1777538;81;21263;-77
2021/06/09 01:27:46;;;;;;;29.23;3.15;;;;;;;13.18;100.00;99446.03;1776860;81;21295;-77
2021/06/09 01:30:51;;;;;;;25.57;3.00;;;;;;;13.25;100.00;99444.66;1776939;81;21350;-77
2021/06/09 01:34:03;;;;;;;18.80;2.98;;;;;;;13.30;100.00;99442.11;1776564;81;21299;-77
2021/06/09 01:37:04;;;;;;;29.30;2.17;;;;;;;13.35;100.00;99440.94;1776553;81;21329;-77
2021/06/09 01:40:09;;;;;;;14.25;2.35;;;;;;;13.38;100.00;99445.17;1776619;81;21299;-77
2021/06/09 01:43:15;;;;;;;12.95;1.98;;;;;;;13.41;100.00;99446.96;1777525;81;21310;-77
2021/06/09 01:46:19;;;;;;;24.35;1.60;;;;;;;13.44;100.00;99445.14;1776367;81;21373;-77
2021/06/09 01:49:25;;;;;;;23.20;2.20;;;;;;;13.46;100.00;99438.91;1751940;81;21822;-77
2021/06/09 01:52:30;;;;;;;10.32;1.45;;;;;;;13.51;100.00;99437.73;1776193;81;21267;-77
2021/06/09 01:55:36;;;;;;;17.73;2.10;;;;;;;13.57;100.00;99447.01;1776638;81;21932;-77
2021/06/09 01:58:42;;;;;;;6.35;1.17;;;;;;;13.66;100.00;99442.13;1776606;81;22576;-77
2021/06/09 02:01:47;;;;;;;14.73;1.72;;;;;;;13.74;100.00;99448.75;1776099;81;21362;-77
2021/06/09 02:04:53;;;;;;;24.77;1.70;;;;;;;13.74;100.00;99445.47;1776524;81;21794;-77
2021/06/09 02:07:59;;;;;;;7.95;1.75;;;;;;;13.74;100.00;99447.38;1775120;81;21168;-77
2021/06/09 02:11:05;;;;;;;17.05;1.92;;;;;;;13.76;100.00;99446.08;1776572;81;21307;-77
2021/06/09 02:14:12;;;;;;;15.55;1.70;;;;;;;13.78;100.00;99451.35;1775265;81;21350;-77
2021/06/09 02:17:18;;;;;;;8.35;1.52;;;;;;;13.80;100.00;99450.09;1775986;81;21307;-78
2021/06/09 02:20:24;;;;;;;14.05;1.60;;;;;;;13.87;100.00;99460.20;1769548;81;21303;-77
2021/06/09 02:23:37;;;;;;;11.00;2.00;;;;;;;13.88;100.00;99459.13;1739046;82;21724;-77
2021/06/09 02:26:45;;;;;;;13.80;1.72;;;;;;;13.88;100.00;99461.38;1738464;82;21355;-77
2021/06/09 02:29:50;;;;;;;8.75;1.50;;;;;;;13.83;100.00;99454.28;1739874;82;21324;-77
2021/06/09 02:32:55;;;;;;;22.42;2.02;;;;;;;13.84;100.00;99462.88;1738987;82;21874;-77
2021/06/09 02:36:03;;;;;;;4.87;1.92;;;;;;;13.84;100.00;99466.16;1717529;82;21355;-76
2021/06/09 02:39:07;;;;;;;12.53;2.33;;;;;;;13.90;100.00;99469.39;1740465;82;21319;-77
2021/06/09 02:42:12;;;;;;;6.00;1.92;;;;;;;13.95;100.00;99471.80;1717342;82;21299;-77
2021/06/09 02:45:21;;;;;;;4.67;2.25;;;;;;;14.06;100.00;99481.25;1739841;82;21866;-77
2021/06/09 02:48:29;;;;;;;20.60;2.17;;;;;;;14.16;100.00;99476.15;1738837;82;21882;-77
2021/06/09 02:51:39;;;;;;;26.12;2.05;;;;;;;14.27;100.00;99475.44;1739852;82;21940;-77
2021/06/09 02:55:23;;;;;;;24.23;2.17;;;;;;;14.37;100.00;99475.49;1738863;82;21839;-77
2021/06/09 02:58:43;;;;;;;12.40;1.82;;;;;;;14.45;100.00;99471.11;1720855;82;21307;-77
2021/06/09 03:01:52;;;;;;;4.62;1.55;;;;;;;14.55;100.00;99469.58;1739948;82;21415;-77
2021/06/09 03:05:04;;;;;;;13.48;1.75;;;;;;;14.69;100.00;99474.99;1753311;81;21288;-77
2021/06/09 03:08:23;;;;;;;24.77;2.00;;;;;;;14.81;99.71;99473.19;1770238;81;21169;-77
2021/06/09 03:11:35;;;;;;;10.78;1.72;;;;;;;14.96;98.97;99476.47;1770465;81;21176;-77
2021/06/09 03:18:25;;;;;;;46.70;3.02;;;;;;;15.29;97.27;99472.03;1768561;81;21280;-77
2021/06/09 03:21:38;;;;;;;27.75;1.82;;;;;;;15.48;96.17;99467.37;1769807;81;21375;-77
2021/06/09 03:24:46;;;;;;;45.03;2.25;;;;;;;15.62;94.78;99465.83;1772345;81;21308;-78
2021/06/09 03:28:23;;;;;;;3.50;2.05;;;;;;;15.75;93.60;99466.55;1778752;79;21284;-77
2021/06/09 03:31:35;;;;;;;5.72;1.42;;;;;;;15.92;92.92;99472.30;1779218;80;21169;-78
2021/06/09 03:37:28;;;;;;;19.32;1.45;;;;;;;16.54;90.79;99463.25;1845990;76;27987;-78
2021/06/09 03:40:37;;;;;;;6.58;1.27;;;;;;;16.74;89.41;99471.24;1836770;77;21283;-78
2021/06/09 03:43:45;;;;;;;15.77;1.80;;;;;;;16.99;87.77;99471.06;1815422;79;21211;-77
2021/06/09 03:46:51;;;;;;;5.50;1.40;;;;;;;17.20;86.27;99465.48;1817008;79;21307;-77
2021/06/09 03:49:56;;;;;;;16.02;1.40;;;;;;;17.40;85.66;99468.42;1817411;79;21157;-77
2021/06/09 03:53:04;;;;;;;3.27;1.32;;;;;;;17.62;85.15;99463.41;1837223;77;21137;-77
2021/06/09 03:56:10;;;;;;;6.53;1.72;;;;;;;17.94;84.71;99454.72;1850224;77;21322;-77
2021/06/09 03:59:16;;;;;;;2.65;1.60;;;;;;;18.21;83.53;99459.14;1851309;77;21326;-78
2021/06/09 04:02:21;;;;;;;4.47;1.50;;;;;;;18.46;82.57;99460.17;1823552;77;21152;-77
2021/06/09 04:05:28;;;;;;;3.92;1.40;;;;;;;18.69;81.77;99454.24;1817381;79;21680;-77
2021/06/09 04:08:34;;;;;;;3.62;1.85;;;;;;;18.79;81.08;99455.80;1819783;77;21309;-77
2021/06/09 04:11:38;;;;;;;1.85;1.67;;;;;;;18.83;81.37;99456.44;1849151;77;21819;-78
2021/06/09 04:14:49;;;;;;;3.15;1.77;;;;;;;19.06;81.58;99460.98;1825635;77;21279;-78
2021/06/09 04:17:55;;;;;;;3.65;2.30;;;;;;;19.15;80.63;99463.62;1834571;77;21177;-77
2021/06/09 04:21:00;;;;;;;2.62;2.02;;;;;;;19.19;80.97;99457.55;1817311;77;21759;-77
2021/06/09 04:24:06;;;;;;;2.65;2.30;;;;;;;19.39;81.15;99462.04;1817318;79;21275;-77
2021/06/09 04:27:19;;;;;;;3.40;2.40;;;;;;;19.63;80.76;99464.08;1816640;79;21599;-78
2021/06/09 04:30:27;;;;;;;4.90;2.85;;;;;;;19.79;80.62;99465.12;1817545;79;21293;-78
2021/06/09 04:33:38;;;;;;;7.62;3.05;;;;;;;19.95;80.45;99467.53;1817697;79;21302;-77
2021/06/09 04:36:43;;;;;;;6.40;4.20;;;;;;;20.07;79.47;99467.70;1811132;79;21210;-78
2021/06/09 04:39:49;;;;;;;6.67;4.47;;;;;;;20.20;78.99;99466.47;1796218;79;21292;-77
2021/06/09 04:42:56;;;;;;;9.88;4.35;;;;;;;20.31;79.36;99470.20;1816038;79;21795;-77
2021/06/09 04:46:03;;;;;;;7.35;4.58;;;;;;;20.42;79.02;99476.17;1816081;78;21176;-78
2021/06/09 04:49:12;;;;;;;10.08;6.75;;;;;;;20.55;78.68;99479.94;1815451;79;21867;-77
2021/06/09 04:52:17;;;;;;;11.03;7.03;;;;;;;20.48;78.40;99483.48;1795389;78;21309;-78
2021/06/09 04:55:23;;;;;;;10.68;5.90;;;;;;;20.25;79.27;99489.30;1798641;77;21145;-77
2021/06/09 04:58:30;;;;;;;7.80;5.22;;;;;;;20.17;79.68;99487.80;1819339;78;21276;-78
2021/06/09 05:01:36;;;;;;;6.53;4.75;;;;;;;20.09;79.86;99490.50;1803629;77;21216;-79
2021/06/09 05:04:41;;;;;;;7.72;4.80;;;;;;;20.00;80.84;99482.34;1801591;78;21284;-77
2021/06/09 05:07:40;;;;;;;10.98;5.00;;;;;;;20.05;81.15;99490.73;1803677;78;21354;-78
2021/06/09 05:10:50;;;;;;;7.90;5.75;;;;;;;20.08;81.28;99492.13;1802090;78;21268;-77
2021/06/09 05:13:57;;;;;;;9.83;5.53;;;;;;;20.13;81.79;99490.80;1808298;77;21212;-78
2021/06/09 05:17:02;;;;;;;8.25;5.00;;;;;;;20.32;81.62;99486.59;1810065;78;21315;-77
2021/06/09 05:20:08;;;;;;;5.40;4.58;;;;;;;20.46;80.59;99489.80;1804014;78;21161;-77
2021/06/09 05:23:20;;;;;;;6.85;5.60;;;;;;;20.53;80.29;99491.88;1804817;78;21346;-80
2021/06/09 05:26:26;;;;;;;7.10;5.70;;;;;;;20.44;80.07;99490.63;1798423;78;21193;-79
2021/06/09 05:29:31;;;;;;;7.17;5.30;;;;;;;20.30;81.03;99492.13;1806802;78;21169;-79
2021/06/09 05:32:37;;;;;;;7.85;4.12;;;;;;;20.26;80.95;99493.74;1754517;81;21276;-79
2021/06/09 05:35:43;;;;;;;15.78;6.05;;;;;;;20.39;82.21;99490.57;1743305;80;21725;-77
2021/06/09 05:38:50;;;;;;;9.93;6.62;;;;;;;20.56;81.79;99490.49;1749129;81;21287;-78
2021/06/09 05:41:55;;;;;;;12.47;7.87;;;;;;;20.80;81.35;99493.81;1724659;82;22309;-79
2021/06/09 05:45:02;;;;;;;8.98;5.35;;;;;;;21.12;80.43;99485.47;1756972;81;21183;-78
2021/06/09 05:48:07;;;;;;;7.10;5.53;;;;;;;21.36;79.15;99485.95;1727875;82;21153;-79
2021/06/09 05:51:12;;;;;;;9.63;5.75;;;;;;;21.35;77.73;99479.56;1758456;81;21720;-78
2021/06/09 05:54:17;;;;;;;8.35;5.53;;;;;;;21.44;77.66;99481.30;1730543;82;21292;-78
2021/06/09 05:57:24;;;;;;;13.25;6.42;;;;;;;21.60;77.38;99485.88;1760832;81;21324;-78
2021/06/09 06:00:32;;;;;;;9.38;6.00;;;;;;;21.68;76.66;99482.55;1696487;81;21253;-78
2021/06/09 06:03:38;;;;;;;10.68;6.33;;;;;;;21.73;75.74;99483.70;1757790;81;21275;-78
2021/06/09 06:06:44;;;;;;;10.50;6.17;;;;;;;21.76;75.63;99478.99;1754648;81;21145;-78
2021/06/09 06:09:50;;;;;;;7.17;5.95;;;;;;;21.84;75.18;99482.11;1756951;81;21295;-78
2021/06/09 06:12:58;;;;;;;11.65;6.28;;;;;;;21.95;74.75;99480.20;1722671;80;21312;-77
2021/06/09 06:16:05;;;;;;;7.00;4.85;;;;;;;22.06;74.15;99485.26;1756265;81;21266;-77
2021/06/09 06:19:11;;;;;;;9.45;6.47;;;;;;;22.17;73.03;99487.86;1756839;81;21209;-78
2021/06/09 06:22:17;;;;;;;11.48;7.28;;;;;;;22.16;72.97;99487.58;1753455;81;21330;-78
2021/06/09 06:25:24;;;;;;;10.90;7.12;;;;;;;22.25;72.38;99484.25;1753492;81;21346;-78
2021/06/09 06:28:29;;;;;;;10.32;7.70;;;;;;;22.34;72.11;99488.19;1724971;80;21319;-78
2021/06/09 06:31:37;;;;;;;17.57;8.05;;;;;;;22.50;71.68;99494.09;1740281;82;21830;-78
2021/06/09 06:34:50;;;;;;;12.47;7.80;;;;;;;22.62;69.83;99491.05;1751868;81;21311;-78
2021/06/09 06:37:57;;;;;;;11.33;7.83;;;;;;;22.73;68.79;99496.11;1727682;80;21383;-78
2021/06/09 06:41:02;;;;;;;13.05;7.05;;;;;;;22.90;68.37;99498.09;1725382;82;21976;-82
2021/06/09 06:44:07;;;;;;;11.08;6.90;;;;;;;23.12;67.67;99497.28;1729868;82;21350;-77
2021/06/09 06:47:14;;;;;;;10.72;6.50;;;;;;;23.19;67.02;99497.83;1719755;82;21311;-79
2021/06/09 06:50:23;;;;;;;10.13;7.00;;;;;;;23.14;66.88;99492.81;1724062;81;21291;-78
2021/06/09 06:53:30;;;;;;;13.85;7.92;;;;;;;23.06;67.13;99498.41;1685727;82;22461;-78
2021/06/09 06:56:35;;;;;;;14.28;7.25;;;;;;;23.15;66.46;99493.95;1720150;82;21185;-77
2021/06/09 06:59:41;;;;;;;10.28;6.42;;;;;;;23.37;65.96;99499.78;1722137;81;21760;-78
2021/06/09 07:02:47;;;;;;;11.20;6.40;;;;;;;23.47;64.82;99486.65;1728852;81;21634;-78
2021/06/09 07:05:54;;;;;;;8.18;5.83;;;;;;;23.59;64.82;99484.97;1727862;82;21225;-78
2021/06/09 07:09:00;;;;;;;9.60;5.17;;;;;;;23.70;64.02;99488.04;1722443;81;21303;-79
2021/06/09 07:12:05;;;;;;;7.75;4.40;;;;;;;23.58;63.05;99490.84;1726445;81;21299;-79
2021/06/09 07:15:18;;;;;;;5.62;4.35;;;;;;;23.57;62.20;99495.59;1732359;81;21291;-80
2021/06/09 07:18:26;;;;;;;6.75;4.67;;;;;;;23.75;61.46;99502.55;1696547;81;21217;-78
2021/06/09 07:21:35;;;;;;;9.93;4.50;;;;;;;23.95;60.69;99496.93;1704553;82;21303;-79
2021/06/09 07:24:45;;;;;;;4.85;4.30;;;;;;;24.11;60.49;99494.08;1699399;82;21299;-79
2021/06/09 07:27:53;;;;;;;4.92;3.37;;;;;;;24.23;59.76;99496.83;1725055;82;21478;-77
2021/06/09 07:30:58;;;;;;;6.50;3.85;;;;;;;24.43;57.65;99493.69;1715337;82;21305;-78
2021/06/09 07:34:04;;;;;;;3.83;2.58;;;;;;;24.64;56.94;99498.59;1737600;80;21198;-78
2021/06/09 07:37:15;;;;;;;4.47;3.00;;;;;;;24.64;55.02;99496.63;1734869;82;21259;-79
2021/06/09 07:40:35;;;;;;;8.25;3.92;;;;;;;24.55;55.96;99494.72;1741646;80;21734;-78
2021/06/09 07:43:39;;;;;;;6.40;3.77;;;;;;;24.52;56.94;99499.52;1740107;81;21203;-78
2021/06/09 07:46:44;;;;;;;7.45;3.90;;;;;;;24.32;56.85;99494.81;1735389;82;21290;-79
2021/06/09 07:49:53;;;;;;;4.60;3.12;;;;;;;24.00;59.35;99495.24;1703221;81;21830;-76
2021/06/09 07:53:05;;;;;;;4.65;2.95;;;;;;;23.90;58.58;99494.69;1732168;81;21329;-78
2021/06/09 07:56:10;;;;;;;6.87;3.60;;;;;;;23.88;58.08;99494.15;1737243;82;21204;-78
2021/06/09 07:59:15;;;;;;;4.25;3.30;;;;;;;23.95;56.99;99494.70;1763141;80;21217;-79
2021/06/09 08:02:22;;;;;;;3.65;2.62;;;;;;;24.03;57.69;99498.28;1760143;79;21134;-79
2021/06/09 08:05:27;;;;;;;3.42;2.67;;;;;;;24.08;55.84;99491.27;1736394;81;21303;-78
2021/06/09 08:08:34;;;;;;;6.90;3.15;;;;;;;24.02;56.61;99490.20;1734963;81;21330;-78
2021/06/09 08:11:39;;;;;;;5.55;2.98;;;;;;;24.04;57.68;99494.36;1738152;81;21329;-78
2021/06/09 08:14:45;;;;;;;5.60;3.60;;;;;;;24.07;58.81;99489.61;1757589;80;21192;-78
2021/06/09 08:17:55;;;;;;;5.55;3.33;;;;;;;23.92;59.05;99487.70;1737988;81;21309;-78
2021/06/09 08:21:16;;;;;;;6.35;3.42;;;;;;;23.75;59.18;99490.55;1757268;81;21363;-79
2021/06/09 08:24:21;;;;;;;4.50;3.22;;;;;;;23.56;60.89;99492.50;1728819;82;21735;-78
2021/06/09 08:27:28;;;;;;;5.05;3.12;;;;;;;23.38;60.30;99489.76;1737045;81;21347;-78
2021/06/09 08:30:33;;;;;;;4.50;2.98;;;;;;;23.15;60.38;99493.11;1734324;82;21262;-78
2021/06/09 08:33:41;;;;;;;5.42;3.40;;;;;;;22.97;60.86;99491.70;1737169;81;21783;-79
2021/06/09 08:36:47;;;;;;;5.47;3.10;;;;;;;22.87;60.93;99486.09;1737085;82;21672;-78
2021/06/09 08:39:52;;;;;;;4.55;2.90;;;;;;;23.00;61.16;99485.55;1756135;81;21303;-78
2021/06/09 08:42:58;;;;;;;6.12;3.30;;;;;;;23.26;60.99;99479.44;1741480;81;21237;-79
2021/06/09 08:46:04;;;;;;;6.25;3.60;;;;;;;23.59;60.57;99479.39;1798874;78;21629;-79
2021/06/09 08:49:09;;;;;;;7.87;3.50;;;;;;;23.97;60.98;99486.86;1804730;78;21268;-77
2021/06/09 08:52:18;;;;;;;5.05;3.37;;;;;;;24.29;60.98;99486.45;1800742;78;21378;-79
2021/06/09 08:55:24;;;;;;;3.45;2.75;;;;;;;24.54;58.60;99489.70;1742564;81;21229;-79
2021/06/09 08:58:31;;;;;;;4.17;2.87;;;;;;;24.57;57.39;99486.91;1803452;78;21172;-79
2021/06/09 09:01:42;;;;;;;6.47;3.80;;;;;;;24.55;58.42;99480.75;1788755;76;62215;-85
2021/06/09 09:04:48;;;;;;;4.58;3.40;;;;;;;24.34;59.02;99484.20;1744067;81;21544;-84
2021/06/09 09:07:56;;;;;;;7.75;3.45;;;;;;;24.17;58.95;99476.99;1734708;81;21920;-83
2021/06/09 09:10:55;;;;;;;4.87;3.10;;;;;;;23.98;58.92;99480.14;1684681;83;21181;-84
2021/06/09 09:14:01;;;;;;;3.55;2.70;;;;;;;23.86;59.90;99471.27;1745825;81;21291;-83
2021/06/09 09:17:20;;;;;;;6.22;3.33;;;;;;;23.81;59.92;99468.50;1743670;81;21307;-84
2021/06/09 09:20:35;;;;;;;5.95;3.60;;;;;;;23.70;59.31;99464.88;1737724;80;21330;-83
2021/06/09 09:23:43;;;;;;;4.78;3.15;;;;;;;23.71;59.87;99460.42;1732903;81;21678;-83
2021/06/09 09:26:54;;;;;;;4.83;2.40;;;;;;;23.91;59.65;99455.89;1684262;84;21324;-85
2021/06/09 09:30:18;;;;;;;7.97;3.50;;;;;;;24.22;59.14;99457.41;1739862;81;21295;-84
2021/06/09 09:33:27;;;;;;;5.72;2.92;;;;;;;24.37;57.33;99450.09;1739430;81;21596;-85
2021/06/09 09:36:36;;;;;;;12.13;3.02;;;;;;;24.51;57.89;99444.14;1696426;83;21287;-83
2021/06/09 09:39:41;;;;;;;5.85;3.12;;;;;;;24.77;57.85;99446.22;1692167;82;21318;-83
2021/06/09 09:42:46;;;;;;;6.33;2.95;;;;;;;24.98;57.76;99440.75;1697861;82;21295;-82
2021/06/09 09:45:53;;;;;;;5.22;2.95;;;;;;;25.10;56.15;99440.39;1667392;84;21775;-82
2021/06/09 09:49:20;;;;;;;9.20;4.17;;;;;;;25.20;53.67;99440.86;1697817;83;21303;-83
2021/06/09 09:52:27;;;;;;;4.78;3.10;;;;;;;25.36;52.17;99441.54;1719638;81;21515;-83
2021/06/09 09:55:38;;;;;;;5.75;3.20;;;;;;;25.54;50.75;99438.00;1707218;81;21825;-82
2021/06/09 09:59:03;;;;;;;4.12;2.70;;;;;;;25.69;51.15;99435.63;1737833;81;21328;-83
2021/06/09 10:02:10;;;;;;;4.25;2.80;;;;;;;25.93;50.13;99435.08;1734929;81;21201;-84
2021/06/09 10:05:20;;;;;;;4.85;2.92;;;;;;;26.18;50.28;99424.67;1717730;83;21536;-84
2021/06/09 10:08:39;;;;;;;3.98;3.08;;;;;;;26.42;50.43;99419.84;1710330;83;21318;-84
2021/06/09 10:11:48;;;;;;;3.95;2.15;;;;;;;26.51;49.23;99425.63;1689600;84;21292;-86
2021/06/09 10:14:56;;;;;;;2.55;1.92;;;;;;;26.65;48.10;99419.53;1680746;83;21311;-86
2021/06/09 10:18:06;;;;;;;3.80;2.37;;;;;;;26.84;46.97;99420.08;1712976;82;21307;-85
2021/06/09 10:21:22;;;;;;;2.92;2.33;;;;;;;26.91;46.43;99419.10;1678745;83;21336;-85
2021/06/09 10:24:28;;;;;;;3.08;2.10;;;;;;;26.83;46.65;99415.62;1713919;82;21310;-86
2021/06/09 10:27:51;;;;;;;3.47;2.12;;;;;;;26.67;45.86;99413.60;1700405;83;21374;-86
2021/06/09 10:31:02;;;;;;;3.98;2.45;;;;;;;26.43;45.23;99426.30;1713372;82;21316;-85
2021/06/09 10:34:08;;;;;;;3.72;2.10;;;;;;;26.35;45.31;99420.80;1714371;83;21218;-84
2021/06/09 10:37:16;;;;;;;5.25;2.72;;;;;;;26.43;45.63;99422.09;1711170;83;21323;-84
2021/06/09 10:40:27;;;;;;;3.62;2.90;;;;;;;26.48;48.41;99423.42;1694035;83;21372;-84
2021/06/09 10:43:36;;;;;;;3.90;2.70;;;;;;;26.36;47.98;99418.25;1702554;83;21342;-84
2021/06/09 10:46:44;;;;;;;11.95;2.80;;;;;;;26.18;48.17;99412.89;1711375;83;21307;-83
2021/06/09 10:49:49;;;;;;;5.00;3.00;;;;;;;25.89;47.39;99417.77;1708179;83;21181;-84
2021/06/09 10:52:56;;;;;;;4.60;2.92;;;;;;;25.64;47.79;99412.71;1726354;81;21276;-84
2021/06/09 10:56:02;;;;;;;4.72;2.00;;;;;;;25.61;49.59;99410.49;1693430;83;21864;-83
2021/06/09 10:59:07;;;;;;;4.03;2.52;;;;;;;25.60;47.96;99413.03;1726286;83;21275;-83
2021/06/09 11:02:25;;;;;;;5.05;2.45;;;;;;;25.48;47.86;99416.23;1691276;81;21248;-83
2021/06/09 11:05:31;;;;;;;2.85;2.40;;;;;;;25.39;48.41;99421.36;1730203;81;21189;-83
2021/06/09 11:08:36;;;;;;;7.53;2.47;;;;;;;25.26;49.47;99416.45;1731020;81;21449;-83
2021/06/09 11:11:41;;;;;;;3.45;2.50;;;;;;;24.97;49.81;99407.45;1679509;83;21674;-83
2021/06/09 11:15:03;;;;;;;10.25;2.65;;;;;;;24.63;51.41;99407.46;1732529;82;22082;-83
2021/06/09 11:18:23;;;;;;;3.55;2.62;;;;;;;24.37;52.35;99409.58;1736752;81;21319;-83
2021/06/09 11:21:32;;;;;;;5.12;2.42;;;;;;;24.17;53.33;99416.92;1737144;81;21237;-83
2021/06/09 11:24:39;;;;;;;3.22;2.20;;;;;;;24.11;53.33;99412.50;1711096;81;21943;-83
2021/06/09 11:27:46;;;;;;;4.75;2.20;;;;;;;24.04;51.41;99407.77;1733993;82;21225;-83
2021/06/09 11:31:07;;;;;;;2.65;2.08;;;;;;;23.98;51.68;99404.73;1732115;81;21707;-83
2021/06/09 11:34:13;;;;;;;7.78;3.58;;;;;;;23.93;52.79;99403.36;1679095;83;21342;-83
2021/06/09 11:37:20;;;;;;;4.55;2.52;;;;;;;23.74;56.00;99397.58;1725844;82;21272;-83
2021/06/09 11:40:27;;;;;;;8.28;2.55;;;;;;;23.54;57.19;99401.25;1681365;83;21810;-83
2021/06/09 11:43:58;;;;;;;10.93;2.95;;;;;;;23.29;56.68;99395.19;1730046;82;21311;-83
2021/06/09 11:47:26;;;;;;;3.80;2.70;;;;;;;22.95;58.43;99394.38;1730496;81;21611;-82
2021/06/09 11:50:35;;;;;;;4.90;2.77;;;;;;;22.73;60.07;99398.55;1730054;81;21291;-82
2021/06/09 11:53:46;;;;;;;4.90;2.92;;;;;;;22.73;61.18;99402.73;1683133;83;21911;-83
2021/06/09 11:56:58;;;;;;;10.13;4.12;;;;;;;22.80;61.81;99404.67;1690568;83;21228;-83
2021/06/09 12:00:05;;;;;;;4.97;3.70;;;;;;;22.75;64.20;99405.50;1691729;83;21299;-83
2021/06/09 12:03:28;;;;;;;6.40;4.03;;;;;;;22.69;66.70;99413.03;1684533;81;21272;-83
2021/06/09 12:06:33;;;;;;;6.97;4.20;;;;;;;22.75;68.12;99407.45;1701456;83;21296;-83
2021/06/09 12:09:42;;;;;;;6.80;3.72;;;;;;;22.84;69.70;99392.68;1736423;81;21709;-83
2021/06/09 12:12:47;;;;;;;7.90;3.67;;;;;;;23.01;68.98;99385.47;1721298;81;21265;-83
2021/06/09 12:15:54;;;;;;;4.42;2.83;;;;;;;23.13;66.74;99378.19;1740488;81;21890;-83
2021/06/09 12:19:00;;;;;;;5.95;3.02;;;;;;;23.29;63.23;99370.61;1742466;81;21157;-84
2021/06/09 12:22:11;;;;;;;20.05;6.92;;;;;;;23.46;63.20;99376.71;1724043;81;21837;-83
2021/06/09 12:25:22;;;;;;;5.67;3.12;;;;;;;23.65;61.26;99379.75;1684127;85;21830;-83
2021/06/09 12:28:28;;;;;;;6.42;3.05;;;;;;;23.82;57.58;99378.02;1675563;84;21328;-83
2021/06/09 12:31:34;;;;;;;3.75;2.77;;;;;;;24.05;55.97;99377.91;1679449;85;21280;-84
2021/06/09 12:34:42;;;;;;;4.10;2.47;;;;;;;24.21;55.06;99378.91;1675288;85;21806;-84
2021/06/09 12:37:56;;;;;;;5.50;2.62;;;;;;;24.40;53.87;99379.67;1716076;81;21306;-83
2021/06/09 12:41:04;;;;;;;3.55;2.72;;;;;;;24.52;51.58;99385.74;1661598;84;21735;-83
2021/06/09 12:44:19;;;;;;;5.45;2.55;;;;;;;24.59;51.73;99384.84;1746141;81;21252;-83
2021/06/09 12:47:38;;;;;;;8.05;3.20;;;;;;;24.66;52.23;99389.55;1747618;81;21320;-82
2021/06/09 12:50:46;;;;;;;4.37;2.85;;;;;;;24.66;52.21;99390.95;1678243;84;21922;-82
2021/06/09 12:53:53;;;;;;;3.75;2.55;;;;;;;24.68;53.11;99394.84;1703427;83;21139;-82
2021/06/09 12:57:00;;;;;;;3.12;2.35;;;;;;;24.68;52.25;99395.67;1739759;81;21292;-82
2021/06/09 13:00:06;;;;;;;25.82;7.30;;;;;;;24.69;51.74;99394.53;1735646;82;21841;-83
2021/06/09 13:11:31;;;;;;;4.58;3.05;;;;;;;24.32;60.73;99370.45;1912150;75;28446;-83
2021/06/09 13:14:43;;;;;;;6.20;3.58;;;;;;;24.13;61.99;99373.09;1861742;76;21291;-83
2021/06/09 13:17:58;;;;;;;5.85;3.70;;;;;;;23.86;61.57;99367.95;1857238;75;21681;-83
2021/06/09 13:21:26;;;;;;;7.47;3.52;;;;;;;23.57;62.18;99367.20;1852613;77;21255;-84
2021/06/09 13:24:46;;;;;;;4.12;3.10;;;;;;;23.41;62.45;99373.38;1857909;76;21175;-85
2021/06/09 13:27:51;;;;;;;8.60;3.70;;;;;;;23.29;62.21;99367.81;1843113;75;21265;-85
2021/06/09 13:31:00;;;;;;;5.10;3.65;;;;;;;23.20;62.62;99368.42;1760767;78;21284;-84
2021/06/09 13:34:04;;;;;;;4.95;3.55;;;;;;;23.15;62.75;99374.02;1807462;78;21282;-85
2021/06/09 13:37:10;;;;;;;7.90;3.50;;;;;;;23.11;63.09;99378.48;1800861;79;21268;-83
2021/06/09 13:40:22;;;;;;;7.20;3.90;;;;;;;23.07;62.81;99380.15;1848402;77;21323;-83
2021/06/09 13:43:31;;;;;;;4.50;3.08;;;;;;;23.05;64.12;99380.97;1784928;80;21288;-84
2021/06/09 13:46:53;;;;;;;4.03;2.90;;;;;;;23.08;65.95;99381.81;1783605;80;21172;-84
2021/06/09 13:50:06;;;;;;;6.00;2.80;;;;;;;23.12;65.76;99381.53;1748869;80;21285;-84
2021/06/09 13:53:17;;;;;;;5.55;3.40;;;;;;;23.15;65.14;99380.98;1817146;79;21279;-84
2021/06/09 13:56:45;;;;;;;6.05;3.22;;;;;;;23.20;64.13;99382.93;1817496;79;21942;-84
2021/06/09 14:00:05;;;;;;;6.12;3.05;;;;;;;23.26;63.84;99383.75;1817550;79;21294;-84
2021/06/09 14:03:25;;;;;;;3.60;2.92;;;;;;;23.33;64.02;99391.25;1817928;79;21848;-84
2021/06/09 14:06:31;;;;;;;7.22;3.35;;;;;;;23.33;62.28;99394.04;1788119;79;21203;-84
2021/06/09 14:09:37;;;;;;;5.47;2.77;;;;;;;23.23;61.83;99387.09;1817361;79;21856;-84
2021/06/09 14:12:49;;;;;;;6.45;3.08;;;;;;;23.12;62.27;99387.11;1815744;79;21210;-84
2021/06/09 14:15:59;;;;;;;4.62;3.00;;;;;;;23.09;62.42;99389.06;1794219;79;21839;-84
2021/06/09 14:19:07;;;;;;;5.33;3.12;;;;;;;23.12;62.82;99389.91;1817498;79;21267;-84
2021/06/09 14:22:14;;;;;;;4.40;2.70;;;;;;;23.18;61.95;99387.38;1774669;79;21180;-84
2021/06/09 14:25:28;;;;;;;4.15;2.77;;;;;;;23.21;60.98;99378.45;1817350;79;21149;-84
2021/06/09 14:28:42;;;;;;;4.87;2.77;;;;;;;23.19;61.08;99393.22;1817384;79;21156;-84
2021/06/09 14:31:49;;;;;;;6.15;2.62;;;;;;;23.17;61.54;99402.45;1778962;79;21758;-84
2021/06/09 14:34:53;;;;;;;6.47;2.40;;;;;;;23.13;61.88;99413.05;1778750;79;21196;-84
2021/06/09 14:38:00;;;;;;;4.12;2.02;;;;;;;23.02;62.02;99404.42;1817386;79;21762;-84
2021/06/09 14:41:05;;;;;;;7.35;1.70;;;;;;;22.94;62.70;99400.23;1816723;79;21196;-84
2021/06/09 14:44:20;;;;;;;6.05;2.17;;;;;;;22.85;62.58;99394.34;1817380;79;21362;-84
2021/06/09 14:50:36;;;;;;;2.75;1.72;;;;;;;22.66;61.87;99378.73;1778922;79;21302;-84
2021/06/09 14:53:40;;;;;;;2.25;1.80;;;;;;;22.53;62.18;99367.30;1817095;79;21724;-83
2021/06/09 14:56:46;;;;;;;2.52;1.85;;;;;;;22.40;62.82;99368.70;1782898;79;21884;-83
2021/06/09 15:00:13;;;;;;;3.55;1.60;;;;;;;22.26;62.11;99357.83;1792807;79;21737;-83